Time;durP1;ratioP1;P1;durP2;ratioP2;P2;SDS_P1;SDS_P2;PMS_P1;PMS_P2;Temp;Humidity;BMP_temperature;BMP_pressure;BME280_temperature;BME280_humidity;BME280_pressure;Samples;Min_cycle;Max_cycle;Signal;HPM_P1;HPM_P2
2022/10/02 00:00:19;;;;;;;12.32;9.10;;;13.50;99.90;;;;;;5076085;28;20310;-78
2022/10/02 00:02:53;;;;;;;7.15;6.45;;;13.50;99.90;;;;;;5078077;28;20232;-80
2022/10/02 00:05:24;;;;;;;5.57;3.90;;;13.50;99.90;;;;;;5078346;28;20285;-78
2022/10/02 00:07:55;;;;;;;4.63;3.58;;;13.50;99.90;;;;;;5077199;28;20681;-77
2022/10/02 00:10:27;;;;;;;16.13;11.13;;;13.50;99.90;;;;;;5079885;28;20621;-80
2022/10/02 00:12:58;;;;;;;22.08;13.25;;;13.50;99.90;;;;;;5080962;28;20617;-81
2022/10/02 00:15:28;;;;;;;13.57;9.32;;;13.50;99.90;;;;;;5078325;28;20220;-81
2022/10/02 00:18:00;;;;;;;16.35;12.32;;;13.60;99.90;;;;;;5081480;28;20289;-81
2022/10/02 00:20:32;;;;;;;12.02;8.82;;;13.60;99.90;;;;;;5076374;28;20311;-78
2022/10/02 00:23:07;;;;;;;15.98;11.98;;;13.50;99.90;;;;;;5076104;28;20228;-78
2022/10/02 00:25:40;;;;;;;8.63;5.47;;;13.60;99.90;;;;;;5076434;28;20649;-78
2022/10/02 00:28:17;;;;;;;4.43;2.88;;;13.60;99.90;;;;;;5076551;28;20532;-81
2022/10/02 00:31:00;;;;;;;11.02;7.78;;;13.60;99.90;;;;;;5076786;28;20247;-81
2022/10/02 00:33:38;;;;;;;6.35;4.07;;;13.60;99.90;;;;;;5077131;28;20307;-80
2022/10/02 00:36:16;;;;;;;8.70;5.22;;;13.60;99.90;;;;;;5079219;28;20227;-80
2022/10/02 00:38:51;;;;;;;15.02;11.20;;;13.60;99.90;;;;;;5079570;28;20285;-78
2022/10/02 00:41:55;;;;;;;6.85;6.07;;;13.60;99.90;;;;;;5078495;28;20223;-77
2022/10/02 00:44:40;;;;;;;9.85;7.00;;;13.60;99.90;;;;;;5075893;28;20232;-81
2022/10/02 00:47:13;;;;;;;16.42;10.88;;;13.60;99.90;;;;;;5076204;28;20243;-82
2022/10/02 00:49:57;;;;;;;14.27;9.07;;;13.60;99.90;;;;;;5077248;28;20227;-82
2022/10/02 00:52:43;;;;;;;17.85;11.20;;;13.60;99.90;;;;;;5075943;28;20553;-78
2022/10/02 00:55:49;;;;;;;8.45;5.20;;;13.60;99.90;;;;;;5075072;28;20231;-79
2022/10/02 00:58:41;;;;;;;5.60;3.15;;;13.60;99.90;;;;;;5061523;28;20231;-80
2022/10/02 01:01:12;;;;;;;5.57;3.20;;;13.60;99.90;;;;;;5077186;28;20223;-77
2022/10/02 01:03:43;;;;;;;6.13;4.63;;;13.60;99.90;;;;;;5077123;28;20216;-80
2022/10/02 01:06:11;;;;;;;5.03;3.67;;;13.60;99.90;;;;;;5076575;28;20261;-81
2022/10/02 01:08:39;;;;;;;8.63;5.15;;;13.60;99.90;;;;;;5075674;28;20227;-79
2022/10/02 01:11:08;;;;;;;20.38;12.82;;;13.60;99.90;;;;;;5075233;28;20324;-79
2022/10/02 01:13:35;;;;;;;5.70;4.60;;;13.60;99.90;;;;;;5076969;28;20299;-82
2022/10/02 01:16:02;;;;;;;8.10;3.47;;;13.60;99.90;;;;;;5077420;28;20538;-82
2022/10/02 01:18:31;;;;;;;15.88;10.68;;;13.50;99.90;;;;;;5078994;28;20235;-81
2022/10/02 01:21:03;;;;;;;7.00;5.38;;;13.50;99.90;;;;;;5075943;28;20310;-81
2022/10/02 01:23:38;;;;;;;5.72;2.53;;;13.60;99.90;;;;;;5076482;28;20247;-81
2022/10/02 01:26:10;;;;;;;11.25;4.65;;;13.60;99.90;;;;;;5074616;28;20228;-80
2022/10/02 01:28:38;;;;;;;8.48;3.65;;;13.60;99.90;;;;;;5075098;28;20224;-81
2022/10/02 01:31:09;;;;;;;18.25;13.93;;;13.50;99.90;;;;;;5074438;28;20251;-80
2022/10/02 01:33:38;;;;;;;8.10;5.57;;;13.50;99.90;;;;;;5073205;28;20243;-81
2022/10/02 01:36:06;;;;;;;9.43;6.05;;;13.50;99.90;;;;;;5074118;28;20473;-81
2022/10/02 01:38:34;;;;;;;9.50;5.35;;;13.50;99.90;;;;;;5073426;28;20228;-77
2022/10/02 01:41:01;;;;;;;10.75;7.68;;;13.50;99.90;;;;;;5074254;28;20228;-77
2022/10/02 01:43:33;;;;;;;10.23;6.63;;;13.50;99.90;;;;;;5073617;28;20727;-80
2022/10/02 01:46:16;;;;;;;6.32;4.03;;;13.50;99.90;;;;;;5074003;28;20688;-80
2022/10/02 01:48:47;;;;;;;12.70;8.23;;;13.50;99.90;;;;;;5074221;28;20274;-78
2022/10/02 01:51:44;;;;;;;22.70;11.75;;;13.50;99.90;;;;;;5074071;28;20228;-81
2022/10/02 01:54:30;;;;;;;6.63;3.67;;;13.40;99.90;;;;;;5073843;28;20212;-77
2022/10/02 01:57:09;;;;;;;5.85;3.63;;;13.40;99.90;;;;;;5063039;28;20303;-77
2022/10/02 01:59:46;;;;;;;11.43;4.45;;;13.40;99.90;;;;;;5073371;28;20664;-82
2022/10/02 02:02:28;;;;;;;11.43;7.60;;;13.40;99.90;;;;;;5073528;28;20227;-79
2022/10/02 02:05:00;;;;;;;7.82;4.35;;;13.40;99.90;;;;;;5073487;28;20244;-78
2022/10/02 02:07:42;;;;;;;3.92;2.70;;;13.30;99.90;;;;;;5073258;28;20311;-81
2022/10/02 02:10:18;;;;;;;7.63;2.33;;;13.40;99.90;;;;;;5062943;28;20228;-79
2022/10/02 02:12:49;;;;;;;5.82;3.10;;;13.40;99.90;;;;;;5061767;28;20309;-78
2022/10/02 02:15:23;;;;;;;4.93;2.58;;;13.40;99.90;;;;;;5033171;28;20686;-78
2022/10/02 02:17:56;;;;;;;7.07;2.30;;;13.40;99.90;;;;;;5033833;28;20283;-81
2022/10/02 02:20:28;;;;;;;8.75;2.50;;;13.30;99.90;;;;;;5033797;28;20213;-82
2022/10/02 02:22:59;;;;;;;4.15;2.70;;;13.30;99.90;;;;;;5033640;28;20233;-81
2022/10/02 02:25:29;;;;;;;18.38;13.68;;;13.30;99.90;;;;;;5036093;28;20229;-77
2022/10/02 02:28:03;;;;;;;11.65;8.23;;;13.30;99.90;;;;;;5033511;28;20225;-77
2022/10/02 02:30:34;;;;;;;6.00;5.00;;;13.30;99.90;;;;;;5033737;28;20714;-80
2022/10/02 02:33:08;;;;;;;6.93;4.45;;;13.30;99.90;;;;;;5032642;28;20231;-77
2022/10/02 02:35:40;;;;;;;6.53;3.55;;;13.30;99.90;;;;;;5033502;28;20608;-78
2022/10/02 02:38:12;;;;;;;6.75;3.88;;;13.30;99.90;;;;;;5033327;28;20300;-81
2022/10/02 02:40:43;;;;;;;5.78;3.80;;;13.30;99.90;;;;;;5037838;28;20223;-80
2022/10/02 02:43:16;;;;;;;4.88;3.13;;;13.30;99.90;;;;;;5052662;28;20282;-82
2022/10/02 02:45:49;;;;;;;7.45;3.50;;;13.30;99.90;;;;;;5053783;28;20224;-81
2022/10/02 02:48:24;;;;;;;2.50;2.30;;;13.30;99.90;;;;;;5053059;28;20303;-81
2022/10/02 02:50:55;;;;;;;5.20;2.17;;;13.40;99.90;;;;;;5052888;28;20712;-79
2022/10/02 02:53:26;;;;;;;12.30;6.10;;;13.40;99.90;;;;;;5053297;28;20225;-79
2022/10/02 02:55:56;;;;;;;7.25;3.78;;;13.40;99.90;;;;;;5053167;28;20307;-81
2022/10/02 02:58:28;;;;;;;5.72;2.33;;;13.40;99.90;;;;;;5037139;28;20221;-79
2022/10/02 03:00:57;;;;;;;4.20;2.67;;;13.40;99.90;;;;;;5033799;28;20229;-79
2022/10/02 03:03:24;;;;;;;4.57;2.63;;;13.50;99.90;;;;;;5033577;28;20312;-79
2022/10/02 03:06:00;;;;;;;9.73;2.60;;;13.50;99.90;;;;;;5033597;28;20248;-82
2022/10/02 03:08:33;;;;;;;9.32;4.18;;;13.50;99.90;;;;;;5032890;28;20693;-79
2022/10/02 03:11:15;;;;;;;10.23;3.50;;;13.50;99.90;;;;;;5033594;28;20305;-79
2022/10/02 03:13:54;;;;;;;4.22;2.47;;;13.50;99.90;;;;;;5070934;28;20235;-79
2022/10/02 03:16:39;;;;;;;5.90;2.33;;;13.50;99.90;;;;;;5073447;28;20284;-82
2022/10/02 03:19:21;;;;;;;3.40;1.80;;;13.50;99.90;;;;;;5072648;28;20220;-79
2022/10/02 03:21:57;;;;;;;6.20;3.05;;;13.50;99.90;;;;;;5073857;28;20532;-77
2022/10/02 03:24:29;;;;;;;4.80;2.22;;;13.50;99.90;;;;;;5077922;28;20311;-81
2022/10/02 03:27:03;;;;;;;4.20;2.78;;;13.50;99.90;;;;;;5077674;28;20228;-77
2022/10/02 03:29:36;;;;;;;5.30;2.33;;;13.50;99.90;;;;;;5078615;28;20224;-77
2022/10/02 03:32:08;;;;;;;10.30;4.07;;;13.50;99.90;;;;;;5076828;28;20251;-80
2022/10/02 03:34:36;;;;;;;5.03;3.70;;;13.50;99.90;;;;;;5076381;28;20220;-81
2022/10/02 03:37:03;;;;;;;6.80;4.40;;;13.50;99.90;;;;;;5076976;28;20253;-81
2022/10/02 03:39:31;;;;;;;5.93;2.97;;;13.50;99.90;;;;;;5077020;28;20227;-81
2022/10/02 03:41:58;;;;;;;4.85;2.90;;;13.50;99.90;;;;;;5077017;28;20262;-78
2022/10/02 03:44:25;;;;;;;8.55;2.45;;;13.50;99.90;;;;;;5075981;28;20315;-78
2022/10/02 03:46:52;;;;;;;5.30;2.40;;;13.50;99.90;;;;;;5076729;28;20220;-79
2022/10/02 03:49:20;;;;;;;7.15;3.30;;;13.50;99.90;;;;;;5075730;28;20220;-81
2022/10/02 03:51:47;;;;;;;5.30;3.38;;;13.50;99.90;;;;;;5075855;28;20243;-78
2022/10/02 03:54:17;;;;;;;8.93;3.30;;;13.50;99.90;;;;;;5075518;28;20224;-79
2022/10/02 03:56:52;;;;;;;5.50;3.00;;;13.50;99.90;;;;;;5074747;28;20224;-78
2022/10/02 03:59:33;;;;;;;5.00;3.58;;;13.50;99.90;;;;;;5075638;28;20292;-78
2022/10/02 04:02:09;;;;;;;5.15;3.20;;;13.50;99.90;;;;;;5065993;28;20236;-80
2022/10/02 04:04:46;;;;;;;3.95;2.47;;;13.50;99.90;;;;;;5075678;28;20614;-80
2022/10/02 04:07:18;;;;;;;4.45;2.42;;;13.50;99.90;;;;;;5076606;28;20591;-78
2022/10/02 04:09:52;;;;;;;5.40;2.78;;;13.50;99.90;;;;;;5076023;28;20224;-78
2022/10/02 04:12:25;;;;;;;6.70;2.92;;;13.50;99.90;;;;;;5076781;28;20271;-78
2022/10/02 04:14:58;;;;;;;8.85;2.30;;;13.50;99.90;;;;;;5076260;28;20629;-77
2022/10/02 04:17:33;;;;;;;5.63;2.67;;;13.50;99.90;;;;;;5077515;28;20530;-80
2022/10/02 04:20:06;;;;;;;7.53;4.28;;;13.40;99.90;;;;;;5076458;28;20220;-80
2022/10/02 04:22:38;;;;;;;9.40;6.50;;;13.40;99.90;;;;;;5074992;28;20223;-80
2022/10/02 04:25:12;;;;;;;10.55;8.57;;;13.50;99.90;;;;;;5075655;28;20239;-78
2022/10/02 04:27:44;;;;;;;8.75;5.50;;;13.40;99.90;;;;;;5076282;28;20224;-80
2022/10/02 04:30:14;;;;;;;6.38;4.47;;;13.40;99.90;;;;;;5075266;28;20220;-80
2022/10/02 04:32:41;;;;;;;15.07;9.02;;;13.40;99.90;;;;;;5076330;28;20232;-78
2022/10/02 04:35:16;;;;;;;4.90;3.40;;;13.40;99.90;;;;;;5075882;28;20262;-78
2022/10/02 04:38:10;;;;;;;6.82;5.70;;;13.40;99.90;;;;;;5076485;28;20789;-78
2022/10/02 04:40:53;;;;;;;6.00;4.35;;;13.40;99.90;;;;;;5077550;28;20227;-80
2022/10/02 04:43:36;;;;;;;6.30;4.05;;;13.50;99.90;;;;;;5080762;28;20251;-80
2022/10/02 04:46:18;;;;;;;10.63;4.53;;;13.50;99.90;;;;;;5084365;28;20285;-81
2022/10/02 04:49:15;;;;;;;8.23;3.22;;;13.50;99.90;;;;;;5084001;28;20671;-78
2022/10/02 04:52:04;;;;;;;8.43;4.72;;;13.50;99.90;;;;;;5083780;28;20216;-80
2022/10/02 04:55:18;;;;;;;7.97;2.72;;;13.50;99.90;;;;;;5083629;28;20231;-80
2022/10/02 04:57:59;;;;;;;10.05;5.15;;;13.50;99.90;;;;;;5071311;28;20239;-78
2022/10/02 05:00:35;;;;;;;9.90;6.47;;;13.50;99.90;;;;;;5085160;28;20224;-79
2022/10/02 05:03:18;;;;;;;10.85;5.60;;;13.50;99.90;;;;;;5083929;28;20239;-78
2022/10/02 05:05:59;;;;;;;5.68;2.72;;;13.60;99.90;;;;;;5086537;28;20227;-77
2022/10/02 05:08:53;;;;;;;4.53;2.20;;;13.60;99.90;;;;;;5089286;28;20219;-79
2022/10/02 05:11:42;;;;;;;3.50;2.10;;;13.60;99.90;;;;;;5085611;28;20231;-79
2022/10/02 05:14:39;;;;;;;6.22;2.70;;;13.60;99.90;;;;;;5074824;28;20220;-81
2022/10/02 05:17:23;;;;;;;5.90;4.35;;;13.60;99.90;;;;;;5073677;28;20602;-79
2022/10/02 05:20:16;;;;;;;5.55;3.70;;;13.70;99.90;;;;;;5080518;28;20254;-78
2022/10/02 05:23:03;;;;;;;6.25;5.60;;;13.70;99.90;;;;;;5083851;28;20281;-80
2022/10/02 05:26:00;;;;;;;11.20;4.05;;;13.70;99.90;;;;;;5083212;28;20263;-80
2022/10/02 05:28:58;;;;;;;4.85;2.97;;;13.70;99.90;;;;;;5084273;28;20254;-81
2022/10/02 05:31:39;;;;;;;5.68;2.10;;;13.70;99.90;;;;;;5075088;28;20303;-79
2022/10/02 05:34:21;;;;;;;10.43;6.97;;;13.70;99.90;;;;;;5080656;28;20243;-78
2022/10/02 05:37:22;;;;;;;9.35;6.50;;;13.80;99.90;;;;;;5077803;28;20227;-79
2022/10/02 05:39:56;;;;;;;18.25;11.10;;;13.80;99.90;;;;;;5069482;28;20302;-78
2022/10/02 05:42:31;;;;;;;7.53;4.45;;;13.80;99.90;;;;;;5076631;28;20265;-78
2022/10/02 05:45:02;;;;;;;8.13;4.40;;;13.80;99.90;;;;;;5046674;28;20227;-78
2022/10/02 05:47:31;;;;;;;5.10;3.55;;;13.70;99.90;;;;;;5076992;28;20220;-80
2022/10/02 05:50:03;;;;;;;7.85;4.28;;;13.80;99.90;;;;;;5076840;28;20224;-79
2022/10/02 05:52:38;;;;;;;9.15;3.63;;;13.80;99.90;;;;;;5075570;28;20301;-79
2022/10/02 05:55:14;;;;;;;5.80;3.58;;;13.80;99.90;;;;;;5074905;28;20225;-80
2022/10/02 05:57:46;;;;;;;3.55;2.45;;;13.80;99.90;;;;;;5076088;28;20250;-81
2022/10/02 06:00:23;;;;;;;6.07;3.75;;;13.90;99.90;;;;;;5076329;28;20325;-80
2022/10/02 06:02:56;;;;;;;6.05;3.00;;;13.90;99.90;;;;;;5075654;28;20247;-81
2022/10/02 06:05:38;;;;;;;6.45;3.45;;;13.90;99.90;;;;;;5064560;28;20236;-78
2022/10/02 06:08:10;;;;;;;8.00;3.03;;;14.00;99.90;;;;;;5077765;28;20322;-79
2022/10/02 06:10:42;;;;;;;6.00;4.35;;;14.00;99.90;;;;;;5074608;28;20277;-78
2022/10/02 06:13:15;;;;;;;5.35;3.67;;;14.00;99.90;;;;;;5078662;28;20228;-80
2022/10/02 06:15:48;;;;;;;17.95;10.27;;;14.10;99.90;;;;;;5078141;28;20626;-80
2022/10/02 06:18:19;;;;;;;5.63;3.65;;;14.10;99.90;;;;;;5078756;28;20243;-81
2022/10/02 06:20:53;;;;;;;3.40;2.30;;;14.20;99.90;;;;;;5080198;28;20227;-78
2022/10/02 06:23:24;;;;;;;3.83;2.08;;;14.20;99.90;;;;;;5078055;28;20550;-78
2022/10/02 06:25:55;;;;;;;3.60;2.00;;;14.20;99.90;;;;;;5073057;28;20305;-78
2022/10/02 06:28:29;;;;;;;8.83;3.43;;;14.20;99.90;;;;;;5074853;28;20361;-78
2022/10/02 06:31:00;;;;;;;15.27;3.65;;;14.20;99.90;;;;;;5074524;28;20470;-79
2022/10/02 06:33:30;;;;;;;6.60;2.37;;;14.20;99.90;;;;;;5076492;28;20315;-80
2022/10/02 06:36:20;;;;;;;7.10;3.70;;;14.20;99.90;;;;;;5083972;28;20470;-80
2022/10/02 06:39:17;;;;;;;6.20;2.37;;;14.20;99.90;;;;;;5077652;28;20220;-78
2022/10/02 06:41:53;;;;;;;5.40;2.80;;;14.20;99.90;;;;;;5077196;28;20863;-78
2022/10/02 06:44:31;;;;;;;6.70;2.30;;;14.20;99.90;;;;;;5079563;28;20496;-80
2022/10/02 06:47:15;;;;;;;10.23;4.82;;;14.20;99.90;;;;;;5077281;28;20469;-78
2022/10/02 06:49:59;;;;;;;10.77;5.00;;;14.20;99.90;;;;;;5074655;28;20223;-78
2022/10/02 06:52:35;;;;;;;8.00;5.10;;;14.30;99.90;;;;;;5083527;28;20470;-82
2022/10/02 06:55:25;;;;;;;7.15;4.80;;;14.30;99.90;;;;;;5073910;28;20219;-78
2022/10/02 06:58:06;;;;;;;8.00;4.45;;;14.30;99.90;;;;;;5081481;28;20230;-78
2022/10/02 07:00:41;;;;;;;13.85;7.93;;;14.20;99.90;;;;;;5080111;28;20296;-79
2022/10/02 07:03:32;;;;;;;18.48;10.30;;;14.30;99.90;;;;;;5082184;28;20310;-78
2022/10/02 07:06:32;;;;;;;9.85;5.00;;;14.30;99.90;;;;;;5080865;28;20299;-79
2022/10/02 07:09:41;;;;;;;9.37;6.20;;;14.30;99.90;;;;;;5079689;28;20255;-78
2022/10/02 07:12:24;;;;;;;7.60;4.78;;;14.30;99.90;;;;;;5080920;28;20550;-78
2022/10/02 07:15:07;;;;;;;8.43;5.27;;;14.40;99.90;;;;;;5081140;28;20216;-78
2022/10/02 07:17:49;;;;;;;7.15;4.10;;;14.40;99.90;;;;;;5079429;28;20474;-78
2022/10/02 07:20:49;;;;;;;4.15;3.75;;;14.40;99.90;;;;;;5083067;28;20223;-77
2022/10/02 07:23:50;;;;;;;8.27;3.60;;;14.40;99.90;;;;;;5079297;28;20662;-77
2022/10/02 07:26:41;;;;;;;5.37;3.60;;;14.40;99.90;;;;;;5082803;28;20464;-79
2022/10/02 07:29:28;;;;;;;7.40;3.80;;;14.50;99.90;;;;;;5081835;28;20803;-79
2022/10/02 07:32:21;;;;;;;4.77;3.57;;;14.40;99.90;;;;;;5081533;28;20477;-80
2022/10/02 07:35:01;;;;;;;8.63;6.13;;;14.50;99.90;;;;;;5083139;28;20458;-79
2022/10/02 07:37:38;;;;;;;5.80;4.30;;;14.50;99.90;;;;;;5083808;28;20458;-79
2022/10/02 07:40:18;;;;;;;6.50;4.37;;;14.50;99.90;;;;;;5081318;28;20461;-78
2022/10/02 07:43:00;;;;;;;8.10;4.60;;;14.60;99.90;;;;;;5086365;28;20500;-79
2022/10/02 07:45:31;;;;;;;11.13;5.60;;;14.60;99.90;;;;;;5081312;28;20454;-79
2022/10/02 07:48:21;;;;;;;7.20;4.90;;;14.60;99.90;;;;;;5081153;28;20510;-80
2022/10/02 07:51:02;;;;;;;10.80;6.37;;;14.70;99.90;;;;;;5078272;28;20537;-78
2022/10/02 07:53:47;;;;;;;6.67;3.97;;;14.70;99.90;;;;;;5077760;28;20480;-77
2022/10/02 07:56:18;;;;;;;10.20;7.00;;;14.80;99.90;;;;;;5078130;28;20551;-78
2022/10/02 07:58:57;;;;;;;11.00;7.90;;;14.80;99.90;;;;;;5079118;28;20585;-77
2022/10/02 08:01:35;;;;;;;7.57;5.40;;;14.90;99.90;;;;;;5076159;28;20549;-77
2022/10/02 08:04:06;;;;;;;6.50;4.05;;;14.90;99.90;;;;;;5076752;28;20469;-77
2022/10/02 08:06:37;;;;;;;14.50;7.47;;;15.00;99.90;;;;;;5077762;28;20270;-78
2022/10/02 08:09:12;;;;;;;9.70;6.60;;;15.00;99.90;;;;;;5075394;28;20527;-77
2022/10/02 08:11:43;;;;;;;13.82;9.48;;;15.10;99.90;;;;;;5078007;28;20955;-77
2022/10/02 08:14:24;;;;;;;7.93;6.00;;;15.20;99.90;;;;;;5076562;28;20247;-78
2022/10/02 08:16:57;;;;;;;7.73;6.00;;;15.30;99.90;;;;;;5077605;28;20971;-77
2022/10/02 08:19:32;;;;;;;9.93;7.17;;;15.40;99.90;;;;;;5066109;28;20665;-77
2022/10/02 08:22:08;;;;;;;11.80;6.10;;;15.50;99.90;;;;;;5080068;28;21024;-79
2022/10/02 08:24:45;;;;;;;7.50;5.03;;;15.60;99.90;;;;;;5067343;28;20470;-79
2022/10/02 08:27:34;;;;;;;6.77;5.60;;;15.70;99.90;;;;;;5080868;28;20454;-80
2022/10/02 08:30:06;;;;;;;11.00;5.90;;;15.80;99.90;;;;;;5078804;28;20477;-80
2022/10/02 08:32:36;;;;;;;6.30;4.97;;;15.90;99.90;;;;;;5079107;28;20466;-78
2022/10/02 08:35:13;;;;;;;8.17;5.63;;;16.10;99.90;;;;;;5077797;28;20494;-78
2022/10/02 08:37:53;;;;;;;9.43;6.67;;;16.10;99.90;;;;;;5076956;28;20470;-78
2022/10/02 08:40:56;;;;;;;11.77;5.50;;;16.10;99.90;;;;;;5075765;28;20831;-80
2022/10/02 08:43:59;;;;;;;10.53;5.10;;;16.20;99.90;;;;;;5076751;28;20464;-78
2022/10/02 08:47:01;;;;;;;11.40;10.13;;;16.20;99.90;;;;;;5075258;28;20798;-78
2022/10/02 08:50:19;;;;;;;12.77;7.73;;;16.30;99.90;;;;;;5076551;28;20461;-79
2022/10/02 08:53:11;;;;;;;12.17;7.20;;;16.30;99.90;;;;;;5058816;28;20898;-78
2022/10/02 08:55:51;;;;;;;7.50;5.50;;;16.30;99.90;;;;;;5075148;28;20466;-80
2022/10/02 08:58:42;;;;;;;12.03;5.60;;;16.40;99.90;;;;;;5047636;28;20948;-78
2022/10/02 09:01:27;;;;;;;10.43;7.20;;;16.50;99.90;;;;;;5064658;28;20472;-78
2022/10/02 09:04:34;;;;;;;12.80;6.90;;;16.60;99.90;;;;;;5074687;28;20561;-79
2022/10/02 09:11:08;;;;;;;7.30;4.67;;;16.70;99.90;;;;;;5064007;28;20483;-78
2022/10/02 09:14:12;;;;;;;6.67;4.43;;;16.80;99.90;;;;;;5047979;28;20548;-78
2022/10/02 09:16:58;;;;;;;9.43;5.27;;;16.80;99.90;;;;;;5044110;28;20524;-78
2022/10/02 09:19:50;;;;;;;9.00;5.30;;;16.80;99.90;;;;;;5064741;28;20546;-81
2022/10/02 09:22:46;;;;;;;5.83;5.07;;;16.90;99.90;;;;;;5075120;28;20468;-78
2022/10/02 09:25:28;;;;;;;5.37;4.57;;;17.00;99.90;;;;;;5075006;28;21008;-77
2022/10/02 09:28:32;;;;;;;6.13;5.23;;;17.00;99.90;;;;;;5074447;28;20493;-78
2022/10/02 09:31:39;;;;;;;8.90;6.70;;;17.00;99.90;;;;;;5075140;28;20495;-78
2022/10/02 09:34:50;;;;;;;10.37;7.30;;;17.00;99.90;;;;;;5069506;28;20470;-78
2022/10/02 09:38:04;;;;;;;9.57;5.60;;;17.00;99.90;;;;;;5046233;28;20458;-77
2022/10/02 09:41:06;;;;;;;7.77;5.63;;;17.00;99.90;;;;;;5074763;28;20501;-77
2022/10/02 09:44:07;;;;;;;11.90;9.13;;;17.00;99.90;;;;;;5074253;28;20873;-80
2022/10/02 09:47:17;;;;;;;10.90;5.87;;;17.10;99.90;;;;;;5074250;28;20497;-77
2022/10/02 09:50:28;;;;;;;5.87;4.37;;;17.10;99.90;;;;;;5074321;28;20443;-78
2022/10/02 09:53:26;;;;;;;7.50;4.67;;;17.10;99.90;;;;;;5077976;28;20462;-80
2022/10/02 09:59:21;;;;;;;7.87;4.33;;;17.10;99.90;;;;;;5063694;28;20482;-78
2022/10/02 10:02:28;;;;;;;11.40;6.20;;;17.10;99.90;;;;;;5074972;28;20595;-78
2022/10/02 10:08:23;;;;;;;15.40;6.37;;;17.10;99.90;;;;;;5073869;28;20474;-78
2022/10/02 10:21:19;;;;;;;13.90;8.07;;;17.00;99.90;;;;;;5073604;28;20455;-79
2022/10/02 10:24:32;;;;;;;11.47;4.70;;;17.00;99.90;;;;;;5068759;28;20519;-79
2022/10/02 10:40:49;;;;;;;4.07;3.77;;;16.90;99.90;;;;;;5079655;28;20497;-80
2022/10/02 10:47:18;;;;;;;6.87;4.40;;;16.90;99.90;;;;;;5082687;28;20483;-79
2022/10/02 10:59:45;;;;;;;5.07;3.10;;;16.90;99.90;;;;;;5044735;28;20480;-81
2022/10/02 12:27:02;;;;;;;11.30;7.83;;;16.30;99.90;;;;;;5076880;28;20913;-82
2022/10/02 12:30:02;;;;;;;5.87;5.33;;;16.30;99.90;;;;;;5067825;28;20499;-81
2022/10/02 12:32:44;;;;;;;5.13;4.63;;;16.40;99.90;;;;;;5077172;28;20554;-81
2022/10/02 12:35:36;;;;;;;5.50;4.30;;;16.50;99.90;;;;;;5077868;28;20475;-79
2022/10/02 12:38:18;;;;;;;7.57;4.70;;;16.60;99.90;;;;;;5079240;28;20559;-77
2022/10/02 12:40:58;;;;;;;11.30;5.43;;;16.60;99.90;;;;;;5077024;28;20879;-78
2022/10/02 12:44:06;;;;;;;9.60;5.93;;;16.70;99.90;;;;;;5079319;28;20491;-77
2022/10/02 12:47:09;;;;;;;5.03;4.37;;;16.70;99.90;;;;;;5077499;28;20964;-78
2022/10/02 12:49:48;;;;;;;6.37;4.57;;;16.70;99.90;;;;;;5055594;28;20447;-78
2022/10/02 12:52:59;;;;;;;5.50;4.00;;;16.80;99.90;;;;;;5077969;28;20855;-80
2022/10/02 12:56:04;;;;;;;6.50;3.90;;;16.80;99.90;;;;;;5076693;28;20492;-81
2022/10/02 12:58:48;;;;;;;5.90;3.97;;;16.80;99.90;;;;;;5076276;28;20632;-81
2022/10/02 13:02:12;;;;;;;4.40;3.10;;;16.80;99.90;;;;;;5075408;28;20479;-79
2022/10/02 13:05:14;;;;;;;6.83;3.97;;;16.90;99.90;;;;;;4983949;28;20475;-78
2022/10/02 13:08:08;;;;;;;4.00;3.10;;;16.80;99.90;;;;;;4984509;28;20535;-78
2022/10/02 13:10:42;;;;;;;6.60;4.33;;;16.80;99.90;;;;;;5066226;28;20456;-78
2022/10/02 13:13:44;;;;;;;9.57;4.30;;;16.80;99.90;;;;;;5073167;28;20466;-78
2022/10/02 13:16:23;;;;;;;6.30;4.23;;;16.90;99.90;;;;;;5069729;28;20502;-78
2022/10/02 13:19:14;;;;;;;3.80;3.50;;;16.90;99.90;;;;;;5075549;28;20470;-78
2022/10/02 13:21:50;;;;;;;3.37;3.03;;;16.90;99.90;;;;;;5062456;28;20460;-81
2022/10/02 13:24:43;;;;;;;5.47;2.83;;;16.90;99.90;;;;;;5074723;28;20984;-79
2022/10/02 13:27:24;;;;;;;3.53;2.37;;;17.00;99.90;;;;;;5076967;28;20473;-80
2022/10/02 13:30:05;;;;;;;3.57;2.07;;;17.00;99.90;;;;;;5076307;28;20471;-80
2022/10/02 13:32:58;;;;;;;3.00;2.27;;;17.00;99.90;;;;;;5076752;28;20502;-80
2022/10/02 13:36:05;;;;;;;7.30;4.60;;;17.00;99.90;;;;;;5074625;28;20492;-78
2022/10/02 13:38:51;;;;;;;8.83;3.03;;;17.00;99.90;;;;;;5042283;28;20470;-79
2022/10/02 13:41:32;;;;;;;4.80;3.00;;;17.00;99.90;;;;;;5079964;28;20465;-77
2022/10/02 13:44:13;;;;;;;5.97;2.77;;;17.00;99.90;;;;;;5080324;28;20463;-78
2022/10/02 13:47:00;;;;;;;4.20;2.90;;;17.00;99.90;;;;;;5086238;28;20474;-80
2022/10/02 13:49:44;;;;;;;3.93;3.53;;;16.90;99.90;;;;;;5085579;28;20482;-77
2022/10/02 13:52:21;;;;;;;7.73;4.47;;;16.90;99.90;;;;;;5069211;28;20469;-78
2022/10/02 13:55:11;;;;;;;6.10;4.60;;;16.90;99.90;;;;;;5081941;28;20471;-78
2022/10/02 13:57:54;;;;;;;8.13;6.23;;;16.90;99.90;;;;;;5079871;28;20452;-78
2022/10/02 14:00:40;;;;;;;7.13;5.47;;;16.90;99.90;;;;;;5078440;28;20526;-79
2022/10/02 14:03:22;;;;;;;6.57;3.70;;;16.90;99.90;;;;;;5080134;28;20472;-78
2022/10/02 14:05:54;;;;;;;4.50;3.53;;;16.90;99.90;;;;;;5078900;28;20885;-78
2022/10/02 14:08:39;;;;;;;5.10;2.87;;;16.90;99.90;;;;;;5082739;28;20473;-77
2022/10/02 14:11:23;;;;;;;3.60;2.80;;;16.90;99.90;;;;;;5080846;28;20464;-78
2022/10/02 14:14:06;;;;;;;4.30;2.40;;;16.90;99.90;;;;;;5079795;28;20478;-77
2022/10/02 14:16:45;;;;;;;2.40;2.13;;;16.90;99.90;;;;;;5082932;28;20459;-78
2022/10/02 14:19:54;;;;;;;5.00;3.20;;;16.90;99.90;;;;;;5080763;28;20486;-78
2022/10/02 14:22:36;;;;;;;5.10;2.90;;;16.90;99.90;;;;;;5004398;28;20482;-78
2022/10/02 14:25:21;;;;;;;5.70;3.17;;;16.90;99.90;;;;;;5078078;28;20470;-77
2022/10/02 14:28:33;;;;;;;3.90;2.50;;;16.90;99.90;;;;;;5078280;28;20519;-76
2022/10/02 14:31:24;;;;;;;3.17;2.20;;;16.90;99.90;;;;;;5077883;28;20462;-78
2022/10/02 14:34:16;;;;;;;5.63;2.80;;;16.90;99.90;;;;;;5077206;28;20523;-78
2022/10/02 14:36:54;;;;;;;3.63;2.37;;;16.90;99.90;;;;;;5047572;28;20496;-78
2022/10/02 14:39:33;;;;;;;4.17;2.00;;;16.90;99.90;;;;;;5074456;28;20532;-77
2022/10/02 14:42:31;;;;;;;3.00;2.30;;;16.90;99.90;;;;;;5073675;28;20467;-77
2022/10/02 14:45:20;;;;;;;10.70;3.90;;;17.00;99.90;;;;;;5068906;28;20454;-77
2022/10/02 14:48:16;;;;;;;8.20;3.80;;;17.00;99.90;;;;;;5073354;28;20460;-78
2022/10/02 14:51:19;;;;;;;4.03;3.17;;;17.00;99.90;;;;;;5073841;28;20865;-77
2022/10/02 14:54:06;;;;;;;9.03;3.57;;;17.00;99.90;;;;;;5041289;28;20478;-78
2022/10/02 14:56:54;;;;;;;5.43;3.60;;;17.10;99.90;;;;;;5074347;28;20466;-79
2022/10/02 14:59:52;;;;;;;7.27;3.90;;;17.00;99.90;;;;;;5073575;28;20955;-78
2022/10/02 15:02:40;;;;;;;4.10;2.83;;;17.00;99.90;;;;;;5073503;28;20472;-79
2022/10/02 15:05:27;;;;;;;6.87;2.90;;;17.00;99.90;;;;;;5076282;28;20459;-79
2022/10/02 15:07:54;;;;;;;4.00;3.33;;;17.00;99.90;;;;;;5075014;28;20472;-79
2022/10/02 15:10:27;;;;;;;4.57;3.07;;;17.00;99.90;;;;;;5077935;28;20560;-78
2022/10/02 15:12:57;;;;;;;4.40;3.27;;;17.10;99.90;;;;;;5068746;28;20534;-79
2022/10/02 15:15:32;;;;;;;3.30;2.47;;;17.10;99.90;;;;;;5076158;28;20492;-78
2022/10/02 15:18:18;;;;;;;4.10;2.50;;;17.00;99.90;;;;;;5081349;28;20482;-79
2022/10/02 15:20:59;;;;;;;4.10;2.60;;;17.10;99.90;;;;;;5083015;28;20469;-79
2022/10/02 15:23:42;;;;;;;3.60;2.77;;;17.00;99.90;;;;;;5082427;28;20472;-78
2022/10/02 15:26:27;;;;;;;4.00;3.40;;;17.00;99.90;;;;;;5080686;28;20457;-79
2022/10/02 15:29:04;;;;;;;3.60;2.20;;;17.00;99.90;;;;;;5084942;28;20521;-79
2022/10/02 15:31:40;;;;;;;6.17;3.23;;;17.00;99.90;;;;;;5083075;28;20515;-78
2022/10/02 15:34:21;;;;;;;6.00;4.30;;;17.00;99.90;;;;;;5080136;28;20465;-79
2022/10/02 15:37:03;;;;;;;4.87;4.03;;;17.00;99.90;;;;;;5082212;28;20565;-79
2022/10/02 15:40:10;;;;;;;6.30;4.23;;;17.00;99.90;;;;;;5069255;28;20565;-78
2022/10/02 15:42:47;;;;;;;4.97;2.37;;;17.00;99.90;;;;;;5074702;28;20469;-79
2022/10/02 15:45:56;;;;;;;4.60;3.67;;;17.00;99.90;;;;;;5081309;28;20472;-79
2022/10/02 15:48:44;;;;;;;5.43;3.07;;;17.00;99.90;;;;;;5081144;28;20851;-80
2022/10/02 15:51:31;;;;;;;4.17;3.23;;;17.00;99.90;;;;;;5080791;28;20462;-80
2022/10/02 15:54:11;;;;;;;4.43;3.33;;;17.00;99.90;;;;;;5082081;28;20473;-77
2022/10/02 15:57:17;;;;;;;3.40;3.00;;;17.00;99.90;;;;;;5083749;28;20535;-77
2022/10/02 16:00:10;;;;;;;5.30;2.80;;;16.90;99.90;;;;;;5074772;28;20557;-78
2022/10/02 16:02:56;;;;;;;6.57;2.60;;;16.90;99.90;;;;;;5077262;28;21019;-78
2022/10/02 16:05:56;;;;;;;3.33;2.13;;;16.90;99.90;;;;;;5076103;28;20466;-79
2022/10/02 16:08:42;;;;;;;3.03;2.73;;;16.90;99.90;;;;;;5064137;28;20516;-78
2022/10/02 16:11:33;;;;;;;4.30;2.23;;;16.90;99.90;;;;;;5078340;28;20465;-78